sensor_id;sensor_type;location;lat;lon;timestamp;P1;durP1;ratioP1;P2;durP2;ratioP2
9914;SDS011;4996;48.746;9.174;2022-09-20T00:01:19;4.97;;;2.60;;
9914;SDS011;4996;48.746;9.174;2022-09-20T00:03:47;8.63;;;3.10;;
9914;SDS011;4996;48.746;9.174;2022-09-20T00:06:16;5.93;;;2.90;;
9914;SDS011;4996;48.746;9.174;2022-09-20T00:08:44;5.53;;;2.83;;
9914;SDS011;4996;48.746;9.174;2022-09-20T00:11:12;4.10;;;2.50;;
9914;SDS011;4996;48.746;9.174;2022-09-20T00:13:40;4.80;;;2.60;;
9914;SDS011;4996;48.746;9.174;2022-09-20T00:16:08;4.27;;;2.83;;
9914;SDS011;4996;48.746;9.174;2022-09-20T00:18:36;4.70;;;2.83;;
9914;SDS011;4996;48.746;9.174;2022-09-20T00:21:02;8.77;;;1.87;;
9914;SDS011;4996;48.746;9.174;2022-09-20T00:23:28;4.33;;;2.20;;
9914;SDS011;4996;48.746;9.174;2022-09-20T00:25:55;5.50;;;2.50;;
9914;SDS011;4996;48.746;9.174;2022-09-20T00:28:22;4.10;;;2.30;;
9914;SDS011;4996;48.746;9.174;2022-09-20T00:30:49;3.20;;;2.03;;
9914;SDS011;4996;48.746;9.174;2022-09-20T00:33:16;3.70;;;2.07;;
9914;SDS011;4996;48.746;9.174;2022-09-20T00:35:42;4.57;;;1.80;;
9914;SDS011;4996;48.746;9.174;2022-09-20T00:38:11;3.40;;;1.97;;
9914;SDS011;4996;48.746;9.174;2022-09-20T00:40:37;2.40;;;1.93;;
9914;SDS011;4996;48.746;9.174;2022-09-20T00:43:04;7.37;;;2.47;;
9914;SDS011;4996;48.746;9.174;2022-09-20T00:45:30;2.30;;;1.63;;
9914;SDS011;4996;48.746;9.174;2022-09-20T00:47:57;8.83;;;1.87;;
9914;SDS011;4996;48.746;9.174;2022-09-20T00:55:56;3.00;;;1.63;;
9914;SDS011;4996;48.746;9.174;2022-09-20T00:58:25;4.03;;;2.50;;
9914;SDS011;4996;48.746;9.174;2022-09-20T01:00:53;4.83;;;2.47;;
9914;SDS011;4996;48.746;9.174;2022-09-20T01:03:21;2.57;;;1.57;;
9914;SDS011;4996;48.746;9.174;2022-09-20T01:05:49;4.07;;;1.90;;
9914;SDS011;4996;48.746;9.174;2022-09-20T01:08:17;4.70;;;2.10;;
9914;SDS011;4996;48.746;9.174;2022-09-20T01:10:42;2.47;;;1.63;;
9914;SDS011;4996;48.746;9.174;2022-09-20T01:13:08;4.97;;;1.70;;
9914;SDS011;4996;48.746;9.174;2022-09-20T01:15:34;3.63;;;1.80;;
9914;SDS011;4996;48.746;9.174;2022-09-20T01:18:02;5.70;;;2.27;;
9914;SDS011;4996;48.746;9.174;2022-09-20T01:20:32;7.93;;;1.73;;
9914;SDS011;4996;48.746;9.174;2022-09-20T01:28:31;4.90;;;1.97;;
9914;SDS011;4996;48.746;9.174;2022-09-20T01:33:51;6.10;;;2.00;;
9914;SDS011;4996;48.746;9.174;2022-09-20T01:36:25;3.80;;;1.70;;
9914;SDS011;4996;48.746;9.174;2022-09-20T01:41:59;6.37;;;2.00;;
9914;SDS011;4996;48.746;9.174;2022-09-20T01:46:55;4.13;;;3.70;;
9914;SDS011;4996;48.746;9.174;2022-09-20T02:13:42;3.83;;;1.60;;
9914;SDS011;4996;48.746;9.174;2022-09-20T02:18:46;6.30;;;1.60;;
9914;SDS011;4996;48.746;9.174;2022-09-20T02:40:34;4.00;;;1.43;;
9914;SDS011;4996;48.746;9.174;2022-09-20T02:46:26;2.13;;;1.60;;
9914;SDS011;4996;48.746;9.174;2022-09-20T02:52:05;3.37;;;1.40;;
9914;SDS011;4996;48.746;9.174;2022-09-20T02:54:57;8.17;;;2.50;;
9914;SDS011;4996;48.746;9.174;2022-09-20T03:00:32;4.27;;;1.70;;
9914;SDS011;4996;48.746;9.174;2022-09-20T03:03:05;3.80;;;1.63;;
9914;SDS011;4996;48.746;9.174;2022-09-20T03:05:43;5.90;;;1.63;;
9914;SDS011;4996;48.746;9.174;2022-09-20T03:11:03;3.27;;;1.60;;
9914;SDS011;4996;48.746;9.174;2022-09-20T03:14:05;3.33;;;1.30;;
9914;SDS011;4996;48.746;9.174;2022-09-20T03:19:41;7.33;;;2.13;;
9914;SDS011;4996;48.746;9.174;2022-09-20T03:27:54;4.40;;;1.40;;
9914;SDS011;4996;48.746;9.174;2022-09-20T03:39:35;4.90;;;1.87;;
9914;SDS011;4996;48.746;9.174;2022-09-20T03:42:17;3.17;;;1.20;;
9914;SDS011;4996;48.746;9.174;2022-09-20T03:50:50;2.33;;;1.20;;
9914;SDS011;4996;48.746;9.174;2022-09-20T03:58:35;16.30;;;2.17;;
9914;SDS011;4996;48.746;9.174;2022-09-20T04:15:08;5.00;;;2.07;;
9914;SDS011;4996;48.746;9.174;2022-09-20T04:20:45;5.07;;;2.67;;
9914;SDS011;4996;48.746;9.174;2022-09-20T04:23:24;7.43;;;2.20;;
9914;SDS011;4996;48.746;9.174;2022-09-20T04:26:02;3.80;;;1.43;;
9914;SDS011;4996;48.746;9.174;2022-09-20T04:31:42;2.37;;;1.50;;
9914;SDS011;4996;48.746;9.174;2022-09-20T04:34:15;4.20;;;1.93;;
9914;SDS011;4996;48.746;9.174;2022-09-20T04:36:58;4.57;;;1.60;;
9914;SDS011;4996;48.746;9.174;2022-09-20T04:44:53;9.13;;;1.70;;
9914;SDS011;4996;48.746;9.174;2022-09-20T04:50:24;11.53;;;2.20;;
9914;SDS011;4996;48.746;9.174;2022-09-20T04:58:48;4.90;;;2.27;;
9914;SDS011;4996;48.746;9.174;2022-09-20T05:13:22;8.03;;;2.93;;
9914;SDS011;4996;48.746;9.174;2022-09-20T05:16:07;8.90;;;4.07;;
9914;SDS011;4996;48.746;9.174;2022-09-20T05:38:51;15.10;;;3.10;;
9914;SDS011;4996;48.746;9.174;2022-09-20T05:44:14;5.13;;;3.07;;
9914;SDS011;4996;48.746;9.174;2022-09-20T05:50:18;2.83;;;2.50;;
9914;SDS011;4996;48.746;9.174;2022-09-20T05:59:21;9.17;;;3.23;;
9914;SDS011;4996;48.746;9.174;2022-09-20T06:04:32;4.27;;;3.43;;
9914;SDS011;4996;48.746;9.174;2022-09-20T06:07:07;9.60;;;3.17;;
9914;SDS011;4996;48.746;9.174;2022-09-20T06:12:26;4.13;;;2.83;;
9914;SDS011;4996;48.746;9.174;2022-09-20T06:18:56;6.00;;;2.70;;
9914;SDS011;4996;48.746;9.174;2022-09-20T06:21:32;5.60;;;3.30;;
9914;SDS011;4996;48.746;9.174;2022-09-20T06:24:28;3.63;;;2.90;;
9914;SDS011;4996;48.746;9.174;2022-09-20T06:27:15;12.37;;;3.87;;
9914;SDS011;4996;48.746;9.174;2022-09-20T06:29:47;7.10;;;2.70;;
9914;SDS011;4996;48.746;9.174;2022-09-20T06:32:17;7.60;;;3.27;;
9914;SDS011;4996;48.746;9.174;2022-09-20T06:34:43;5.70;;;3.10;;
9914;SDS011;4996;48.746;9.174;2022-09-20T06:37:28;9.93;;;3.00;;
9914;SDS011;4996;48.746;9.174;2022-09-20T06:43:14;9.63;;;3.23;;
9914;SDS011;4996;48.746;9.174;2022-09-20T06:45:40;9.03;;;3.40;;
9914;SDS011;4996;48.746;9.174;2022-09-20T06:48:06;12.43;;;3.30;;
9914;SDS011;4996;48.746;9.174;2022-09-20T06:50:39;12.83;;;3.00;;
9914;SDS011;4996;48.746;9.174;2022-09-20T06:53:07;4.10;;;2.70;;
9914;SDS011;4996;48.746;9.174;2022-09-20T06:55:35;3.60;;;2.83;;
9914;SDS011;4996;48.746;9.174;2022-09-20T06:58:04;6.73;;;3.10;;
9914;SDS011;4996;48.746;9.174;2022-09-20T07:00:30;4.87;;;3.57;;
9914;SDS011;4996;48.746;9.174;2022-09-20T07:02:55;9.23;;;3.47;;
9914;SDS011;4996;48.746;9.174;2022-09-20T07:05:21;4.90;;;3.37;;
9914;SDS011;4996;48.746;9.174;2022-09-20T07:07:48;10.27;;;3.60;;
9914;SDS011;4996;48.746;9.174;2022-09-20T07:10:14;5.13;;;2.97;;
9914;SDS011;4996;48.746;9.174;2022-09-20T07:12:40;9.20;;;3.07;;
9914;SDS011;4996;48.746;9.174;2022-09-20T07:15:06;4.83;;;3.60;;
9914;SDS011;4996;48.746;9.174;2022-09-20T07:17:32;8.30;;;4.00;;
9914;SDS011;4996;48.746;9.174;2022-09-20T07:19:58;7.77;;;4.07;;
9914;SDS011;4996;48.746;9.174;2022-09-20T07:22:24;3.73;;;2.90;;
9914;SDS011;4996;48.746;9.174;2022-09-20T07:24:51;5.67;;;3.43;;
9914;SDS011;4996;48.746;9.174;2022-09-20T07:27:16;7.30;;;2.57;;
9914;SDS011;4996;48.746;9.174;2022-09-20T07:29:42;9.63;;;3.00;;
9914;SDS011;4996;48.746;9.174;2022-09-20T07:32:08;3.40;;;2.47;;
9914;SDS011;4996;48.746;9.174;2022-09-20T07:34:33;8.67;;;3.00;;
9914;SDS011;4996;48.746;9.174;2022-09-20T07:36:59;3.80;;;2.43;;
9914;SDS011;4996;48.746;9.174;2022-09-20T07:39:25;15.03;;;4.03;;
9914;SDS011;4996;48.746;9.174;2022-09-20T07:41:50;5.67;;;3.07;;
9914;SDS011;4996;48.746;9.174;2022-09-20T07:44:16;6.07;;;3.40;;
9914;SDS011;4996;48.746;9.174;2022-09-20T07:46:46;14.20;;;3.90;;
9914;SDS011;4996;48.746;9.174;2022-09-20T07:49:13;7.00;;;3.90;;
9914;SDS011;4996;48.746;9.174;2022-09-20T07:51:38;13.77;;;2.80;;
9914;SDS011;4996;48.746;9.174;2022-09-20T07:54:04;5.30;;;2.70;;
9914;SDS011;4996;48.746;9.174;2022-09-20T07:56:29;6.63;;;2.70;;
9914;SDS011;4996;48.746;9.174;2022-09-20T07:58:55;7.53;;;3.70;;
9914;SDS011;4996;48.746;9.174;2022-09-20T08:01:21;4.73;;;3.13;;
9914;SDS011;4996;48.746;9.174;2022-09-20T08:03:47;4.90;;;2.73;;
9914;SDS011;4996;48.746;9.174;2022-09-20T08:06:12;6.40;;;2.67;;
9914;SDS011;4996;48.746;9.174;2022-09-20T08:08:42;5.73;;;2.50;;
9914;SDS011;4996;48.746;9.174;2022-09-20T08:11:12;10.03;;;2.90;;
9914;SDS011;4996;48.746;9.174;2022-09-20T08:13:44;10.10;;;2.43;;
9914;SDS011;4996;48.746;9.174;2022-09-20T08:16:10;14.47;;;2.17;;
9914;SDS011;4996;48.746;9.174;2022-09-20T08:18:46;5.50;;;2.00;;
9914;SDS011;4996;48.746;9.174;2022-09-20T08:21:12;9.73;;;1.70;;
9914;SDS011;4996;48.746;9.174;2022-09-20T08:23:38;10.93;;;1.73;;
9914;SDS011;4996;48.746;9.174;2022-09-20T08:26:06;9.53;;;1.77;;
9914;SDS011;4996;48.746;9.174;2022-09-20T08:28:33;3.40;;;1.73;;
9914;SDS011;4996;48.746;9.174;2022-09-20T08:30:59;4.87;;;1.93;;
9914;SDS011;4996;48.746;9.174;2022-09-20T08:33:29;5.40;;;1.90;;
9914;SDS011;4996;48.746;9.174;2022-09-20T08:35:54;8.17;;;2.40;;
9914;SDS011;4996;48.746;9.174;2022-09-20T08:38:20;8.83;;;2.07;;
9914;SDS011;4996;48.746;9.174;2022-09-20T08:40:51;8.63;;;2.07;;
9914;SDS011;4996;48.746;9.174;2022-09-20T08:43:21;9.73;;;1.67;;
9914;SDS011;4996;48.746;9.174;2022-09-20T08:45:52;10.10;;;2.67;;
9914;SDS011;4996;48.746;9.174;2022-09-20T08:48:20;5.60;;;1.70;;
9914;SDS011;4996;48.746;9.174;2022-09-20T08:50:47;4.40;;;1.80;;
9914;SDS011;4996;48.746;9.174;2022-09-20T08:53:13;6.10;;;1.67;;
9914;SDS011;4996;48.746;9.174;2022-09-20T08:55:39;3.60;;;1.63;;
9914;SDS011;4996;48.746;9.174;2022-09-20T08:58:07;4.37;;;1.80;;
9914;SDS011;4996;48.746;9.174;2022-09-20T09:00:35;4.60;;;1.80;;
9914;SDS011;4996;48.746;9.174;2022-09-20T09:03:05;7.33;;;2.13;;
9914;SDS011;4996;48.746;9.174;2022-09-20T09:05:37;3.83;;;1.40;;
9914;SDS011;4996;48.746;9.174;2022-09-20T09:08:10;8.93;;;2.40;;
9914;SDS011;4996;48.746;9.174;2022-09-20T09:10:41;4.57;;;1.10;;
9914;SDS011;4996;48.746;9.174;2022-09-20T09:13:14;3.73;;;1.70;;
9914;SDS011;4996;48.746;9.174;2022-09-20T09:15:45;5.00;;;1.40;;
9914;SDS011;4996;48.746;9.174;2022-09-20T09:18:18;9.90;;;1.60;;
9914;SDS011;4996;48.746;9.174;2022-09-20T09:20:43;5.77;;;1.43;;
9914;SDS011;4996;48.746;9.174;2022-09-20T09:23:22;6.60;;;1.90;;
9914;SDS011;4996;48.746;9.174;2022-09-20T09:25:49;4.50;;;1.27;;
9914;SDS011;4996;48.746;9.174;2022-09-20T09:28:16;5.67;;;1.33;;
9914;SDS011;4996;48.746;9.174;2022-09-20T09:30:49;11.33;;;3.47;;
9914;SDS011;4996;48.746;9.174;2022-09-20T09:38:29;6.40;;;1.20;;
9914;SDS011;4996;48.746;9.174;2022-09-20T09:43:24;9.57;;;1.87;;
9914;SDS011;4996;48.746;9.174;2022-09-20T09:45:53;10.03;;;1.97;;
9914;SDS011;4996;48.746;9.174;2022-09-20T09:48:26;2.37;;;1.50;;
9914;SDS011;4996;48.746;9.174;2022-09-20T09:51:14;10.33;;;2.53;;
9914;SDS011;4996;48.746;9.174;2022-09-20T09:53:41;7.60;;;1.40;;
9914;SDS011;4996;48.746;9.174;2022-09-20T09:56:15;5.30;;;1.37;;
9914;SDS011;4996;48.746;9.174;2022-09-20T09:58:54;7.03;;;1.50;;
9914;SDS011;4996;48.746;9.174;2022-09-20T10:04:35;8.47;;;1.80;;
9914;SDS011;4996;48.746;9.174;2022-09-20T10:07:12;8.20;;;2.10;;
9914;SDS011;4996;48.746;9.174;2022-09-20T10:23:01;4.37;;;2.03;;
9914;SDS011;4996;48.746;9.174;2022-09-20T10:34:11;3.97;;;1.50;;
9914;SDS011;4996;48.746;9.174;2022-09-20T10:36:57;4.80;;;1.47;;
9914;SDS011;4996;48.746;9.174;2022-09-20T10:39:26;5.77;;;2.23;;
9914;SDS011;4996;48.746;9.174;2022-09-20T10:50:28;11.53;;;2.63;;
9914;SDS011;4996;48.746;9.174;2022-09-20T10:53:21;5.97;;;1.30;;
9914;SDS011;4996;48.746;9.174;2022-09-20T10:56:09;5.47;;;2.03;;
9914;SDS011;4996;48.746;9.174;2022-09-20T11:02:05;6.17;;;1.10;;
9914;SDS011;4996;48.746;9.174;2022-09-20T11:04:55;3.57;;;1.30;;
9914;SDS011;4996;48.746;9.174;2022-09-20T11:07:44;9.90;;;1.70;;
9914;SDS011;4996;48.746;9.174;2022-09-20T11:10:19;3.90;;;1.33;;
9914;SDS011;4996;48.746;9.174;2022-09-20T11:16:07;6.07;;;2.00;;
9914;SDS011;4996;48.746;9.174;2022-09-20T11:26:54;3.27;;;1.20;;
9914;SDS011;4996;48.746;9.174;2022-09-20T11:29:25;2.90;;;1.40;;
9914;SDS011;4996;48.746;9.174;2022-09-20T11:32:21;4.20;;;1.27;;
9914;SDS011;4996;48.746;9.174;2022-09-20T11:34:53;2.40;;;1.63;;
9914;SDS011;4996;48.746;9.174;2022-09-20T11:37:42;5.00;;;1.53;;
9914;SDS011;4996;48.746;9.174;2022-09-20T11:40:27;3.50;;;1.10;;
9914;SDS011;4996;48.746;9.174;2022-09-20T11:43:00;3.10;;;1.40;;
9914;SDS011;4996;48.746;9.174;2022-09-20T11:45:30;3.63;;;1.20;;
9914;SDS011;4996;48.746;9.174;2022-09-20T11:48:02;3.60;;;1.53;;
9914;SDS011;4996;48.746;9.174;2022-09-20T11:50:36;3.43;;;1.20;;
9914;SDS011;4996;48.746;9.174;2022-09-20T11:53:18;3.00;;;1.33;;
9914;SDS011;4996;48.746;9.174;2022-09-20T11:56:06;4.03;;;1.80;;
9914;SDS011;4996;48.746;9.174;2022-09-20T11:58:44;5.57;;;1.40;;
9914;SDS011;4996;48.746;9.174;2022-09-20T12:01:12;3.13;;;1.20;;
9914;SDS011;4996;48.746;9.174;2022-09-20T12:03:41;8.60;;;1.53;;
9914;SDS011;4996;48.746;9.174;2022-09-20T12:06:23;6.87;;;1.57;;
9914;SDS011;4996;48.746;9.174;2022-09-20T12:08:49;4.47;;;0.93;;
9914;SDS011;4996;48.746;9.174;2022-09-20T12:11:16;5.23;;;1.27;;
9914;SDS011;4996;48.746;9.174;2022-09-20T12:14:04;2.20;;;1.00;;
9914;SDS011;4996;48.746;9.174;2022-09-20T12:19:05;5.40;;;1.23;;
9914;SDS011;4996;48.746;9.174;2022-09-20T12:24:22;2.23;;;1.27;;
9914;SDS011;4996;48.746;9.174;2022-09-20T12:27:54;2.33;;;1.07;;
9914;SDS011;4996;48.746;9.174;2022-09-20T12:30:33;2.97;;;1.30;;
9914;SDS011;4996;48.746;9.174;2022-09-20T12:32:44;6.70;;;1.30;;
9914;SDS011;4996;48.746;9.174;2022-09-20T12:41:11;3.40;;;1.23;;
9914;SDS011;4996;48.746;9.174;2022-09-20T12:43:49;2.50;;;1.30;;
9914;SDS011;4996;48.746;9.174;2022-09-20T12:46:49;2.20;;;1.10;;
9914;SDS011;4996;48.746;9.174;2022-09-20T12:55:26;4.17;;;1.50;;
9914;SDS011;4996;48.746;9.174;2022-09-20T12:58:47;7.23;;;1.70;;
9914;SDS011;4996;48.746;9.174;2022-09-20T13:00:47;3.13;;;1.60;;
9914;SDS011;4996;48.746;9.174;2022-09-20T13:03:28;2.90;;;1.23;;
9914;SDS011;4996;48.746;9.174;2022-09-20T13:13:55;5.73;;;1.50;;
9914;SDS011;4996;48.746;9.174;2022-09-20T13:19:16;2.53;;;1.30;;
9914;SDS011;4996;48.746;9.174;2022-09-20T13:22:00;1.73;;;0.77;;
9914;SDS011;4996;48.746;9.174;2022-09-20T13:24:30;5.23;;;1.10;;
9914;SDS011;4996;48.746;9.174;2022-09-20T13:27:04;1.80;;;1.20;;
9914;SDS011;4996;48.746;9.174;2022-09-20T13:29:34;1.83;;;0.80;;
9914;SDS011;4996;48.746;9.174;2022-09-20T13:37:30;2.97;;;1.20;;
9914;SDS011;4996;48.746;9.174;2022-09-20T13:39:57;1.63;;;1.10;;
9914;SDS011;4996;48.746;9.174;2022-09-20T13:42:23;4.70;;;1.13;;
9914;SDS011;4996;48.746;9.174;2022-09-20T13:44:50;3.27;;;1.43;;
9914;SDS011;4996;48.746;9.174;2022-09-20T13:47:40;3.97;;;1.40;;
9914;SDS011;4996;48.746;9.174;2022-09-20T13:52:54;7.20;;;1.73;;
9914;SDS011;4996;48.746;9.174;2022-09-20T13:55:26;6.40;;;1.50;;
9914;SDS011;4996;48.746;9.174;2022-09-20T13:58:31;4.30;;;1.10;;
9914;SDS011;4996;48.746;9.174;2022-09-20T14:01:00;1.57;;;0.90;;
9914;SDS011;4996;48.746;9.174;2022-09-20T14:03:28;6.73;;;1.40;;
9914;SDS011;4996;48.746;9.174;2022-09-20T14:06:00;2.00;;;1.13;;
9914;SDS011;4996;48.746;9.174;2022-09-20T14:08:30;5.43;;;1.83;;
9914;SDS011;4996;48.746;9.174;2022-09-20T14:11:11;4.70;;;1.43;;
9914;SDS011;4996;48.746;9.174;2022-09-20T14:13:42;4.23;;;1.67;;
9914;SDS011;4996;48.746;9.174;2022-09-20T14:16:10;5.00;;;1.60;;
9914;SDS011;4996;48.746;9.174;2022-09-20T14:18:37;3.47;;;1.50;;
9914;SDS011;4996;48.746;9.174;2022-09-20T14:21:06;4.27;;;1.53;;
9914;SDS011;4996;48.746;9.174;2022-09-20T14:23:46;2.50;;;1.20;;
9914;SDS011;4996;48.746;9.174;2022-09-20T14:26:24;2.43;;;1.27;;
9914;SDS011;4996;48.746;9.174;2022-09-20T14:28:52;4.90;;;1.87;;
9914;SDS011;4996;48.746;9.174;2022-09-20T14:31:23;3.40;;;1.20;;
9914;SDS011;4996;48.746;9.174;2022-09-20T14:33:52;4.80;;;1.53;;
9914;SDS011;4996;48.746;9.174;2022-09-20T14:36:22;5.60;;;2.23;;
9914;SDS011;4996;48.746;9.174;2022-09-20T14:38:51;6.60;;;1.60;;
9914;SDS011;4996;48.746;9.174;2022-09-20T14:41:32;2.30;;;1.30;;
9914;SDS011;4996;48.746;9.174;2022-09-20T14:44:00;1.93;;;1.30;;
9914;SDS011;4996;48.746;9.174;2022-09-20T14:46:28;3.20;;;1.80;;
9914;SDS011;4996;48.746;9.174;2022-09-20T14:55:01;2.00;;;1.40;;
9914;SDS011;4996;48.746;9.174;2022-09-20T14:57:40;3.73;;;1.17;;
9914;SDS011;4996;48.746;9.174;2022-09-20T15:00:07;2.47;;;1.17;;
9914;SDS011;4996;48.746;9.174;2022-09-20T15:02:36;5.73;;;1.50;;
9914;SDS011;4996;48.746;9.174;2022-09-20T15:05:05;6.67;;;1.40;;
9914;SDS011;4996;48.746;9.174;2022-09-20T15:07:40;5.70;;;1.67;;
9914;SDS011;4996;48.746;9.174;2022-09-20T15:10:10;4.13;;;1.70;;
9914;SDS011;4996;48.746;9.174;2022-09-20T15:12:36;3.63;;;1.43;;
9914;SDS011;4996;48.746;9.174;2022-09-20T15:15:02;3.37;;;1.77;;
9914;SDS011;4996;48.746;9.174;2022-09-20T15:17:29;3.57;;;1.93;;
9914;SDS011;4996;48.746;9.174;2022-09-20T15:19:54;2.67;;;1.80;;
9914;SDS011;4996;48.746;9.174;2022-09-20T15:22:20;12.17;;;2.47;;
9914;SDS011;4996;48.746;9.174;2022-09-20T15:24:45;2.83;;;1.53;;
9914;SDS011;4996;48.746;9.174;2022-09-20T15:27:11;5.27;;;1.97;;
9914;SDS011;4996;48.746;9.174;2022-09-20T15:29:37;3.70;;;1.43;;
9914;SDS011;4996;48.746;9.174;2022-09-20T15:32:03;2.67;;;1.20;;
9914;SDS011;4996;48.746;9.174;2022-09-20T15:34:29;2.17;;;1.23;;
9914;SDS011;4996;48.746;9.174;2022-09-20T15:36:56;4.73;;;1.30;;
9914;SDS011;4996;48.746;9.174;2022-09-20T15:39:21;2.20;;;1.00;;
9914;SDS011;4996;48.746;9.174;2022-09-20T15:41:49;1.00;;;0.70;;
9914;SDS011;4996;48.746;9.174;2022-09-20T15:44:16;1.30;;;0.80;;
9914;SDS011;4996;48.746;9.174;2022-09-20T15:46:41;4.20;;;0.90;;
9914;SDS011;4996;48.746;9.174;2022-09-20T15:49:08;1.90;;;1.53;;
9914;SDS011;4996;48.746;9.174;2022-09-20T15:51:36;2.60;;;1.23;;
9914;SDS011;4996;48.746;9.174;2022-09-20T15:54:03;2.20;;;0.90;;
9914;SDS011;4996;48.746;9.174;2022-09-20T15:56:32;2.07;;;0.93;;
9914;SDS011;4996;48.746;9.174;2022-09-20T15:59:00;2.50;;;1.10;;
9914;SDS011;4996;48.746;9.174;2022-09-20T16:01:31;1.30;;;0.93;;
9914;SDS011;4996;48.746;9.174;2022-09-20T16:04:21;3.20;;;1.50;;
9914;SDS011;4996;48.746;9.174;2022-09-20T16:06:48;1.97;;;1.00;;
9914;SDS011;4996;48.746;9.174;2022-09-20T16:09:14;2.63;;;1.57;;
9914;SDS011;4996;48.746;9.174;2022-09-20T16:11:40;1.73;;;1.10;;
9914;SDS011;4996;48.746;9.174;2022-09-20T16:14:05;3.63;;;1.30;;
9914;SDS011;4996;48.746;9.174;2022-09-20T16:16:31;1.50;;;1.40;;
9914;SDS011;4996;48.746;9.174;2022-09-20T16:18:58;1.17;;;0.97;;
9914;SDS011;4996;48.746;9.174;2022-09-20T16:21:54;1.43;;;1.13;;
9914;SDS011;4996;48.746;9.174;2022-09-20T16:24:28;1.60;;;1.23;;
9914;SDS011;4996;48.746;9.174;2022-09-20T16:26:55;2.33;;;1.00;;
9914;SDS011;4996;48.746;9.174;2022-09-20T16:29:21;3.60;;;1.40;;
9914;SDS011;4996;48.746;9.174;2022-09-20T16:31:49;2.33;;;1.30;;
9914;SDS011;4996;48.746;9.174;2022-09-20T16:34:18;6.37;;;1.40;;
9914;SDS011;4996;48.746;9.174;2022-09-20T16:39:15;5.07;;;2.67;;
9914;SDS011;4996;48.746;9.174;2022-09-20T16:41:42;2.53;;;1.60;;
9914;SDS011;4996;48.746;9.174;2022-09-20T16:44:10;3.40;;;1.77;;
9914;SDS011;4996;48.746;9.174;2022-09-20T16:46:37;3.67;;;1.57;;
9914;SDS011;4996;48.746;9.174;2022-09-20T16:49:06;3.50;;;1.53;;
9914;SDS011;4996;48.746;9.174;2022-09-20T16:51:34;3.90;;;2.07;;
9914;SDS011;4996;48.746;9.174;2022-09-20T16:54:04;2.50;;;1.50;;
9914;SDS011;4996;48.746;9.174;2022-09-20T16:56:32;3.80;;;1.60;;
9914;SDS011;4996;48.746;9.174;2022-09-20T16:58:59;2.20;;;1.50;;
9914;SDS011;4996;48.746;9.174;2022-09-20T17:01:26;2.47;;;1.90;;
9914;SDS011;4996;48.746;9.174;2022-09-20T17:03:52;6.90;;;1.73;;
9914;SDS011;4996;48.746;9.174;2022-09-20T17:06:18;2.00;;;1.50;;
9914;SDS011;4996;48.746;9.174;2022-09-20T17:08:44;2.20;;;1.37;;
9914;SDS011;4996;48.746;9.174;2022-09-20T17:11:15;8.63;;;1.90;;
9914;SDS011;4996;48.746;9.174;2022-09-20T17:13:42;7.63;;;1.93;;
9914;SDS011;4996;48.746;9.174;2022-09-20T17:16:10;2.00;;;1.20;;
9914;SDS011;4996;48.746;9.174;2022-09-20T17:18:37;3.23;;;1.27;;
9914;SDS011;4996;48.746;9.174;2022-09-20T17:21:06;3.13;;;1.70;;
9914;SDS011;4996;48.746;9.174;2022-09-20T17:23:33;3.10;;;1.77;;
9914;SDS011;4996;48.746;9.174;2022-09-20T17:26:00;3.70;;;1.40;;
9914;SDS011;4996;48.746;9.174;2022-09-20T17:28:47;1.77;;;1.63;;
9914;SDS011;4996;48.746;9.174;2022-09-20T17:31:21;4.60;;;1.87;;
9914;SDS011;4996;48.746;9.174;2022-09-20T17:33:49;6.50;;;2.83;;
9914;SDS011;4996;48.746;9.174;2022-09-20T17:36:16;4.10;;;2.10;;
9914;SDS011;4996;48.746;9.174;2022-09-20T17:38:44;6.03;;;2.10;;
9914;SDS011;4996;48.746;9.174;2022-09-20T17:43:40;4.80;;;1.73;;
9914;SDS011;4996;48.746;9.174;2022-09-20T17:46:12;6.97;;;1.70;;
9914;SDS011;4996;48.746;9.174;2022-09-20T17:48:40;2.93;;;1.80;;
9914;SDS011;4996;48.746;9.174;2022-09-20T17:51:07;3.37;;;1.80;;
9914;SDS011;4996;48.746;9.174;2022-09-20T17:53:34;3.53;;;1.97;;
9914;SDS011;4996;48.746;9.174;2022-09-20T17:56:01;5.20;;;1.93;;
9914;SDS011;4996;48.746;9.174;2022-09-20T17:58:27;3.40;;;1.80;;
9914;SDS011;4996;48.746;9.174;2022-09-20T18:00:53;2.83;;;1.80;;
9914;SDS011;4996;48.746;9.174;2022-09-20T18:03:25;2.80;;;2.00;;
9914;SDS011;4996;48.746;9.174;2022-09-20T18:05:51;4.20;;;1.83;;
9914;SDS011;4996;48.746;9.174;2022-09-20T18:08:16;5.83;;;1.90;;
9914;SDS011;4996;48.746;9.174;2022-09-20T18:10:52;3.13;;;1.87;;
9914;SDS011;4996;48.746;9.174;2022-09-20T18:13:19;3.50;;;1.90;;
9914;SDS011;4996;48.746;9.174;2022-09-20T18:15:44;3.87;;;2.00;;
9914;SDS011;4996;48.746;9.174;2022-09-20T18:18:10;3.50;;;1.70;;
9914;SDS011;4996;48.746;9.174;2022-09-20T18:20:36;4.93;;;2.17;;
9914;SDS011;4996;48.746;9.174;2022-09-20T18:23:01;4.83;;;2.57;;
9914;SDS011;4996;48.746;9.174;2022-09-20T18:25:28;7.47;;;2.60;;
9914;SDS011;4996;48.746;9.174;2022-09-20T18:28:14;2.80;;;1.70;;
9914;SDS011;4996;48.746;9.174;2022-09-20T18:30:39;3.80;;;2.00;;
9914;SDS011;4996;48.746;9.174;2022-09-20T18:33:05;4.87;;;2.73;;
9914;SDS011;4996;48.746;9.174;2022-09-20T18:35:34;6.63;;;2.10;;
9914;SDS011;4996;48.746;9.174;2022-09-20T18:38:07;3.30;;;2.57;;
9914;SDS011;4996;48.746;9.174;2022-09-20T18:40:36;2.43;;;1.77;;
9914;SDS011;4996;48.746;9.174;2022-09-20T18:43:02;7.20;;;2.10;;
9914;SDS011;4996;48.746;9.174;2022-09-20T18:45:29;3.20;;;2.00;;
9914;SDS011;4996;48.746;9.174;2022-09-20T18:47:54;14.53;;;2.50;;
9914;SDS011;4996;48.746;9.174;2022-09-20T18:50:23;4.60;;;2.63;;
9914;SDS011;4996;48.746;9.174;2022-09-20T18:52:51;3.10;;;2.20;;
9914;SDS011;4996;48.746;9.174;2022-09-20T18:55:16;7.47;;;2.20;;
9914;SDS011;4996;48.746;9.174;2022-09-20T18:57:43;5.30;;;2.30;;
9914;SDS011;4996;48.746;9.174;2022-09-20T19:00:10;7.53;;;2.50;;
9914;SDS011;4996;48.746;9.174;2022-09-20T19:02:54;4.73;;;3.03;;
9914;SDS011;4996;48.746;9.174;2022-09-20T19:05:39;8.07;;;2.30;;
9914;SDS011;4996;48.746;9.174;2022-09-20T19:08:33;6.27;;;3.20;;
9914;SDS011;4996;48.746;9.174;2022-09-20T19:11:08;3.80;;;2.27;;
9914;SDS011;4996;48.746;9.174;2022-09-20T19:13:55;3.17;;;2.20;;
9914;SDS011;4996;48.746;9.174;2022-09-20T19:16:32;4.50;;;2.43;;
9914;SDS011;4996;48.746;9.174;2022-09-20T19:19:04;5.07;;;2.90;;
9914;SDS011;4996;48.746;9.174;2022-09-20T19:27:30;3.23;;;2.20;;
9914;SDS011;4996;48.746;9.174;2022-09-20T19:29:56;7.30;;;2.90;;
9914;SDS011;4996;48.746;9.174;2022-09-20T19:32:22;6.03;;;3.03;;
9914;SDS011;4996;48.746;9.174;2022-09-20T19:34:50;4.87;;;2.90;;
9914;SDS011;4996;48.746;9.174;2022-09-20T19:42:50;2.90;;;2.30;;
9914;SDS011;4996;48.746;9.174;2022-09-20T19:45:27;3.60;;;2.77;;
9914;SDS011;4996;48.746;9.174;2022-09-20T19:50:55;5.50;;;2.93;;
9914;SDS011;4996;48.746;9.174;2022-09-20T19:53:22;6.30;;;2.87;;
9914;SDS011;4996;48.746;9.174;2022-09-20T19:55:51;8.83;;;2.20;;
9914;SDS011;4996;48.746;9.174;2022-09-20T19:58:20;6.17;;;2.70;;
9914;SDS011;4996;48.746;9.174;2022-09-20T20:00:47;6.77;;;3.30;;
9914;SDS011;4996;48.746;9.174;2022-09-20T20:03:13;5.90;;;2.93;;
9914;SDS011;4996;48.746;9.174;2022-09-20T20:05:41;4.63;;;2.70;;
9914;SDS011;4996;48.746;9.174;2022-09-20T20:08:14;5.37;;;3.37;;
9914;SDS011;4996;48.746;9.174;2022-09-20T20:11:02;3.53;;;3.17;;
9914;SDS011;4996;48.746;9.174;2022-09-20T20:16:32;5.97;;;3.57;;
9914;SDS011;4996;48.746;9.174;2022-09-20T20:19:47;5.57;;;3.40;;
9914;SDS011;4996;48.746;9.174;2022-09-20T20:24:55;4.00;;;2.57;;
9914;SDS011;4996;48.746;9.174;2022-09-20T20:27:21;5.00;;;2.80;;
9914;SDS011;4996;48.746;9.174;2022-09-20T20:29:47;7.03;;;3.30;;
9914;SDS011;4996;48.746;9.174;2022-09-20T20:32:14;4.17;;;3.10;;
9914;SDS011;4996;48.746;9.174;2022-09-20T20:34:40;6.53;;;3.50;;
9914;SDS011;4996;48.746;9.174;2022-09-20T20:37:06;7.10;;;3.57;;
9914;SDS011;4996;48.746;9.174;2022-09-20T20:39:32;11.23;;;3.70;;
9914;SDS011;4996;48.746;9.174;2022-09-20T20:41:58;6.43;;;4.00;;
9914;SDS011;4996;48.746;9.174;2022-09-20T20:44:27;9.17;;;3.83;;
9914;SDS011;4996;48.746;9.174;2022-09-20T20:47:03;5.80;;;3.33;;
9914;SDS011;4996;48.746;9.174;2022-09-20T20:49:30;4.60;;;3.30;;
9914;SDS011;4996;48.746;9.174;2022-09-20T20:51:55;5.33;;;3.20;;
9914;SDS011;4996;48.746;9.174;2022-09-20T20:54:22;5.30;;;3.37;;
9914;SDS011;4996;48.746;9.174;2022-09-20T20:56:48;7.80;;;3.10;;
9914;SDS011;4996;48.746;9.174;2022-09-20T20:59:14;6.53;;;3.20;;
9914;SDS011;4996;48.746;9.174;2022-09-20T21:01:40;4.77;;;2.67;;